createdAt,value
2019-01-04T00:01:27.457Z,12.87
2019-01-04T00:04:29.494Z,12.27
2019-01-04T00:07:31.375Z,12.33
2019-01-04T00:10:33.223Z,12.00
2019-01-04T00:13:35.187Z,12.37
2019-01-04T00:16:37.055Z,11.40
2019-01-04T00:19:39.025Z,11.87
2019-01-04T00:22:40.997Z,10.30
2019-01-04T00:25:43.029Z,11.13
2019-01-04T00:28:44.900Z,10.43
2019-01-04T00:31:46.794Z,10.57
2019-01-04T00:34:48.681Z,11.63
2019-01-04T00:37:50.616Z,11.07
2019-01-04T00:40:52.555Z,10.40
2019-01-04T00:43:54.528Z,10.60
2019-01-04T00:46:56.541Z,10.33
2019-01-04T00:49:58.592Z,10.07
2019-01-04T00:53:00.671Z,12.57
2019-01-04T00:56:21.491Z,11.03
2019-01-04T00:59:33.324Z,12.10
2019-01-04T01:02:58.456Z,12.80
2019-01-04T01:06:12.932Z,12.40
2019-01-04T01:09:24.535Z,12.80
2019-01-04T01:12:51.707Z,11.97
2019-01-04T01:15:57.172Z,11.07
2019-01-04T01:19:34.191Z,10.87
2019-01-04T01:22:54.858Z,9.43
2019-01-04T01:26:24.840Z,10.20
2019-01-04T01:29:53.195Z,10.20
2019-01-04T01:33:20.020Z,9.57
2019-01-04T01:36:34.103Z,9.37
2019-01-04T01:40:11.821Z,8.60
2019-01-04T01:43:26.145Z,8.43
2019-01-04T01:46:34.741Z,9.17
2019-01-04T01:49:43.070Z,8.93
2019-01-04T01:52:44.992Z,8.83
2019-01-04T01:55:46.875Z,8.47
2019-01-04T01:58:49.025Z,9.17
2019-01-04T02:01:50.922Z,9.17
2019-01-04T02:04:52.793Z,9.13
2019-01-04T02:07:55.677Z,8.77
2019-01-04T02:10:57.619Z,9.50
2019-01-04T02:13:59.501Z,9.13
2019-01-04T02:17:01.470Z,8.33
2019-01-04T02:20:05.062Z,8.63
2019-01-04T02:23:06.950Z,8.07
2019-01-04T02:26:08.958Z,8.00
2019-01-04T02:29:10.865Z,8.10
2019-01-04T02:32:12.774Z,8.23
2019-01-04T02:35:14.638Z,8.17
2019-01-04T02:38:16.538Z,7.10
2019-01-04T02:41:19.539Z,7.53
2019-01-04T02:44:21.456Z,6.67
2019-01-04T02:47:23.486Z,7.47
2019-01-04T02:50:25.384Z,8.50
2019-01-04T02:53:28.947Z,8.87
2019-01-04T02:56:30.857Z,8.77
2019-01-04T02:59:32.870Z,7.87
2019-01-04T03:02:34.750Z,8.00
2019-01-04T03:05:36.684Z,8.10
2019-01-04T03:08:38.527Z,8.43
2019-01-04T03:11:40.405Z,7.40
2019-01-04T03:14:42.266Z,8.57
2019-01-04T03:17:45.299Z,7.43
2019-01-04T03:20:47.139Z,7.83
2019-01-04T03:23:49.112Z,8.37
2019-01-04T03:26:51.000Z,8.97
2019-01-04T03:29:53.119Z,9.13
2019-01-04T03:32:55.027Z,8.33
2019-01-04T03:35:57.025Z,8.13
2019-01-04T03:38:58.926Z,8.30
2019-01-04T03:42:01.104Z,8.47
2019-01-04T03:45:04.831Z,8.30
2019-01-04T03:48:06.898Z,8.13
2019-01-04T03:51:08.993Z,8.50
2019-01-04T03:54:11.010Z,7.40
2019-01-04T03:57:12.921Z,7.93
2019-01-04T04:00:14.916Z,6.97
2019-01-04T04:03:16.800Z,7.20
2019-01-04T04:06:20.509Z,8.67
2019-01-04T04:09:22.419Z,6.70
2019-01-04T04:12:24.355Z,7.97
2019-01-04T04:15:26.215Z,6.37
2019-01-04T04:18:28.128Z,7.33
2019-01-04T04:21:30.100Z,6.87
2019-01-04T04:24:32.036Z,7.77
2019-01-04T04:27:33.904Z,7.23
2019-01-04T04:30:35.918Z,7.27
2019-01-04T04:33:37.800Z,7.70
2019-01-04T04:36:39.747Z,7.13
2019-01-04T04:39:41.696Z,7.47
2019-01-04T04:42:43.568Z,8.13
2019-01-04T04:45:45.493Z,7.37
2019-01-04T04:48:48.628Z,7.63
2019-01-04T04:51:50.575Z,7.93
2019-01-04T04:54:52.799Z,9.70
2019-01-04T04:57:54.781Z,9.20
2019-01-04T05:00:56.748Z,7.83
2019-01-04T05:03:58.700Z,8.27
2019-01-04T05:07:00.702Z,8.60
2019-01-04T05:10:02.690Z,8.10
2019-01-04T05:13:04.672Z,8.97
2019-01-04T05:16:06.559Z,10.60
2019-01-04T05:19:08.543Z,8.53
2019-01-04T05:22:10.468Z,10.67
2019-01-04T05:25:12.388Z,10.43
2019-01-04T05:28:14.308Z,11.63
2019-01-04T05:31:16.391Z,12.53
2019-01-04T05:34:19.218Z,12.47
2019-01-04T05:37:21.536Z,11.63
2019-01-04T05:40:23.628Z,12.23
2019-01-04T05:43:25.550Z,13.47
2019-01-04T05:46:27.444Z,12.83
2019-01-04T05:49:29.537Z,13.57
2019-01-04T05:52:31.477Z,12.23
2019-01-04T05:55:33.461Z,12.37
2019-01-04T05:58:35.429Z,11.70
2019-01-04T06:01:37.453Z,11.70
2019-01-04T06:04:39.424Z,11.37
2019-01-04T06:07:41.346Z,10.60
2019-01-04T06:10:43.304Z,11.27
2019-01-04T06:13:45.264Z,10.00
2019-01-04T06:16:47.175Z,10.83
2019-01-04T06:19:49.180Z,9.83
2019-01-04T06:22:51.141Z,13.77
2019-01-04T06:25:53.093Z,11.57
2019-01-04T06:28:55.058Z,11.33
2019-01-04T06:31:57.127Z,12.70
2019-01-04T06:34:59.086Z,14.17
2019-01-04T06:38:01.011Z,11.40
2019-01-04T06:41:04.208Z,12.57
2019-01-04T06:44:06.157Z,12.90
2019-01-04T06:47:13.176Z,11.60
2019-01-04T06:50:15.142Z,13.40
2019-01-04T06:53:17.014Z,12.43
2019-01-04T06:56:18.970Z,12.30
2019-01-04T06:59:20.867Z,14.23
2019-01-04T07:02:22.929Z,16.03
2019-01-04T07:05:24.853Z,17.83
2019-01-04T07:08:26.862Z,19.47
2019-01-04T07:11:28.776Z,19.70
2019-01-04T07:14:30.747Z,17.00
2019-01-04T07:17:32.696Z,16.50
2019-01-04T07:20:34.616Z,15.27
2019-01-04T07:23:36.504Z,14.60
2019-01-04T07:26:38.445Z,15.83
2019-01-04T07:29:40.375Z,14.50
2019-01-04T07:32:42.312Z,12.97
2019-01-04T07:35:44.263Z,13.70
2019-01-04T07:38:46.140Z,14.47
2019-01-04T07:41:48.083Z,15.07
2019-01-04T07:44:50.003Z,12.37
2019-01-04T07:47:52.031Z,13.17
2019-01-04T07:50:54.092Z,12.07
2019-01-04T07:54:00.044Z,13.07
2019-01-04T07:57:02.015Z,13.23
2019-01-04T08:00:09.790Z,11.43
2019-01-04T08:03:11.907Z,12.67
2019-01-04T08:06:13.794Z,11.73
2019-01-04T08:09:17.555Z,11.83
2019-01-04T08:12:19.445Z,10.57
2019-01-04T08:15:21.397Z,12.80
2019-01-04T08:18:23.295Z,11.83
2019-01-04T08:21:25.209Z,10.77
2019-01-04T08:24:27.098Z,10.40
2019-01-04T08:27:29.128Z,10.70
2019-01-04T08:30:31.386Z,9.87
2019-01-04T08:33:33.502Z,9.77
2019-01-04T08:36:35.608Z,11.03
2019-01-04T08:39:37.567Z,11.53
2019-01-04T08:42:39.517Z,11.33
2019-01-04T08:45:42.649Z,10.67
2019-01-04T08:48:44.622Z,10.90
2019-01-04T08:51:47.756Z,11.33
2019-01-04T08:54:49.707Z,11.30
2019-01-04T08:57:51.745Z,12.47
2019-01-04T09:00:53.720Z,9.77
2019-01-04T09:03:55.853Z,11.17
2019-01-04T09:06:57.970Z,11.40
2019-01-04T09:10:00.006Z,10.80
2019-01-04T09:13:02.008Z,9.80
2019-01-04T09:16:03.997Z,8.60
2019-01-04T09:19:06.046Z,10.40
2019-01-04T09:22:08.048Z,9.70
2019-01-04T09:25:10.014Z,27.20
2019-01-04T09:28:17.914Z,16.60
2019-01-04T09:31:16.436Z,15.57
2019-01-04T09:34:18.606Z,12.30
2019-01-04T09:37:20.654Z,17.43
2019-01-04T09:40:22.647Z,8.77
2019-01-04T09:43:24.723Z,10.93
2019-01-04T09:46:26.762Z,11.80
2019-01-04T09:49:28.816Z,7.97
2019-01-04T09:52:30.870Z,8.23
2019-01-04T09:55:32.830Z,8.43
2019-01-04T09:58:34.849Z,9.43
2019-01-04T10:01:36.808Z,9.67
2019-01-04T10:04:38.975Z,20.23
2019-01-04T10:07:40.915Z,12.60
2019-01-04T10:10:42.921Z,9.23
2019-01-04T10:13:44.905Z,17.57
2019-01-04T10:16:46.869Z,11.50
2019-01-04T10:19:48.882Z,13.57
2019-01-04T10:22:50.852Z,23.63
2019-01-04T10:25:52.892Z,9.57
2019-01-04T10:28:54.914Z,11.07
2019-01-04T10:31:56.906Z,12.67
2019-01-04T10:34:59.046Z,11.87
2019-01-04T10:38:01.042Z,9.33
2019-01-04T10:41:03.047Z,9.33
2019-01-04T10:44:05.018Z,10.47
2019-01-04T10:47:07.052Z,8.20
2019-01-04T10:50:09.030Z,9.23
2019-01-04T10:53:11.133Z,9.33
2019-01-04T10:56:13.057Z,10.20
2019-01-04T10:59:14.996Z,10.13
2019-01-04T11:02:17.019Z,10.07
2019-01-04T11:05:19.084Z,9.43
2019-01-04T11:08:21.176Z,9.10
2019-01-04T11:11:23.159Z,7.83
2019-01-04T11:14:25.236Z,9.37
2019-01-04T11:17:27.189Z,7.50
2019-01-04T11:20:43.168Z,7.17
2019-01-04T11:23:57.952Z,6.43
2019-01-04T11:26:59.947Z,5.77
2019-01-04T11:30:17.554Z,7.07
2019-01-04T11:33:19.525Z,8.47
2019-01-04T11:36:46.491Z,8.40
2019-01-04T11:39:54.771Z,9.97
2019-01-04T11:43:15.426Z,7.30
2019-01-04T11:46:50.298Z,8.40
2019-01-04T11:50:01.866Z,7.23
2019-01-04T11:53:07.722Z,6.43
2019-01-04T11:56:09.650Z,9.10
2019-01-04T11:59:11.636Z,9.23
2019-01-04T12:02:13.569Z,11.27
2019-01-04T12:05:15.610Z,10.97
2019-01-04T12:08:17.617Z,12.30
2019-01-04T12:11:19.737Z,11.87
2019-01-04T12:14:21.782Z,10.97
2019-01-04T12:17:23.762Z,11.43
2019-01-04T12:20:25.733Z,12.17
2019-01-04T12:23:27.956Z,12.43
2019-01-04T12:26:30.058Z,13.60
2019-01-04T12:29:32.296Z,14.13
2019-01-04T12:32:34.283Z,14.63
2019-01-04T12:35:36.288Z,15.03
2019-01-04T12:38:38.406Z,13.43
2019-01-04T12:41:40.419Z,14.57
2019-01-04T12:44:42.481Z,18.27
2019-01-04T12:47:45.721Z,16.53
2019-01-04T12:50:47.685Z,15.13
2019-01-04T12:53:49.668Z,15.10
2019-01-04T12:56:51.630Z,16.30
2019-01-04T12:59:53.701Z,16.37
2019-01-04T13:02:55.699Z,17.40
2019-01-04T13:05:57.740Z,16.80
2019-01-04T13:08:59.858Z,17.47
2019-01-04T13:12:01.891Z,17.60
2019-01-04T13:15:05.507Z,17.03
2019-01-04T13:18:07.637Z,17.53
2019-01-04T13:21:09.770Z,15.43
2019-01-04T13:24:11.946Z,16.20
2019-01-04T13:27:13.929Z,15.93
2019-01-04T13:30:16.090Z,16.07
2019-01-04T13:33:18.042Z,15.33
2019-01-04T13:36:20.014Z,14.70
2019-01-04T13:39:22.207Z,14.57
2019-01-04T13:42:24.271Z,12.50
2019-01-04T13:45:26.198Z,15.03
2019-01-04T13:48:28.277Z,14.00
2019-01-04T13:51:30.251Z,13.93
2019-01-04T13:54:32.330Z,18.17
2019-01-04T13:57:34.302Z,20.57
2019-01-04T14:00:36.312Z,21.57
2019-01-04T14:03:38.342Z,25.87
2019-01-04T14:06:40.335Z,21.57
2019-01-04T14:09:44.119Z,18.20
2019-01-04T14:12:46.158Z,19.53
2019-01-04T14:15:48.414Z,21.60
2019-01-04T14:18:50.484Z,21.97
2019-01-04T14:21:52.488Z,17.03
2019-01-04T14:24:54.531Z,19.23
2019-01-04T14:27:56.449Z,25.73
2019-01-04T14:30:58.480Z,25.10
2019-01-04T14:34:03.552Z,28.47
2019-01-04T14:37:05.526Z,30.90
2019-01-04T14:40:09.853Z,32.40
2019-01-04T14:43:11.926Z,30.13
2019-01-04T14:46:13.969Z,26.33
2019-01-04T14:49:15.960Z,32.40
2019-01-04T14:52:17.973Z,23.13
2019-01-04T14:55:19.964Z,29.03
2019-01-04T14:58:21.936Z,19.83
2019-01-04T15:01:23.968Z,19.63
2019-01-04T15:04:25.964Z,18.10
2019-01-04T15:07:28.058Z,15.10
2019-01-04T15:10:30.142Z,17.37
2019-01-04T15:13:32.294Z,15.70
2019-01-04T15:16:34.212Z,16.47
2019-01-04T15:19:36.235Z,16.27
2019-01-04T15:22:38.357Z,23.63
2019-01-04T15:25:40.523Z,18.67
2019-01-04T15:28:42.559Z,20.13
2019-01-04T15:31:44.639Z,15.87
2019-01-04T15:34:46.646Z,14.33
2019-01-04T15:37:48.744Z,14.37
2019-01-04T15:40:50.830Z,13.63
2019-01-04T15:43:52.973Z,13.33
2019-01-04T15:46:55.077Z,11.57
2019-01-04T15:49:57.213Z,11.73
2019-01-04T15:52:59.354Z,12.77
2019-01-04T15:56:01.508Z,12.80
2019-01-04T15:59:03.623Z,11.90
2019-01-04T16:02:05.806Z,12.97
2019-01-04T16:05:08.719Z,13.13
2019-01-04T16:08:10.921Z,12.20
2019-01-04T16:11:12.979Z,12.23
2019-01-04T16:14:15.304Z,12.43
2019-01-04T16:17:17.310Z,11.57
2019-01-04T16:20:19.333Z,11.63
2019-01-04T16:23:21.292Z,10.77
2019-01-04T16:26:24.306Z,11.43
2019-01-04T16:29:26.402Z,11.60
2019-01-04T16:32:28.500Z,11.87
2019-01-04T16:35:30.529Z,10.77
2019-01-04T16:38:32.603Z,11.73
2019-01-04T16:41:34.657Z,11.57
2019-01-04T16:44:36.761Z,11.97
2019-01-04T16:47:39.232Z,12.00
2019-01-04T16:50:41.728Z,14.10
2019-01-04T16:53:43.695Z,12.00
2019-01-04T16:56:46.366Z,11.17
2019-01-04T16:59:48.328Z,12.67
2019-01-04T17:02:50.486Z,10.90
2019-01-04T17:05:52.520Z,12.57
2019-01-04T17:08:54.565Z,12.93
2019-01-04T17:11:56.486Z,13.03
2019-01-04T17:14:59.893Z,14.10
2019-01-04T17:18:01.846Z,13.67
2019-01-04T17:21:05.448Z,12.13
2019-01-04T17:24:07.436Z,12.00
2019-01-04T17:27:09.368Z,12.37
2019-01-04T17:30:12.629Z,12.07
2019-01-04T17:33:14.557Z,12.00
2019-01-04T17:36:16.607Z,12.80
2019-01-04T17:39:18.723Z,12.67
2019-01-04T17:42:21.117Z,12.97
2019-01-04T17:45:23.109Z,13.27
2019-01-04T17:48:26.398Z,27.10
2019-01-04T17:51:29.735Z,44.93
2019-01-04T17:54:31.747Z,21.70
2019-01-04T17:57:33.714Z,18.03
2019-01-04T18:00:35.780Z,18.97
2019-01-04T18:03:37.754Z,27.40
2019-01-04T18:06:39.707Z,28.83
2019-01-04T18:09:41.704Z,18.33
2019-01-04T18:12:43.672Z,17.60
2019-01-04T18:15:45.815Z,16.90
2019-01-04T18:18:47.765Z,15.30
2019-01-04T18:21:49.766Z,15.33
2019-01-04T18:24:51.827Z,19.63
2019-01-04T18:27:53.932Z,24.33
2019-01-04T18:30:55.999Z,23.30
2019-01-04T18:33:59.409Z,19.00
2019-01-04T18:37:01.445Z,25.27
2019-01-04T18:40:06.521Z,15.50
2019-01-04T18:43:08.612Z,15.33
2019-01-04T18:46:10.731Z,13.27
2019-01-04T18:49:12.685Z,13.70
2019-01-04T18:52:15.080Z,12.27
2019-01-04T18:55:17.085Z,11.60
2019-01-04T18:58:19.191Z,12.37
2019-01-04T19:01:22.402Z,14.07
2019-01-04T19:04:24.390Z,12.80
2019-01-04T19:07:26.826Z,14.93
2019-01-04T19:10:28.855Z,15.63
2019-01-04T19:13:31.818Z,23.53
2019-01-04T19:16:34.084Z,22.00
2019-01-04T19:19:36.101Z,21.83
2019-01-04T19:22:38.202Z,18.30
2019-01-04T19:25:40.190Z,19.57
2019-01-04T19:28:42.536Z,25.10
2019-01-04T19:31:46.287Z,32.27
2019-01-04T19:34:51.697Z,32.97
2019-01-04T19:37:53.646Z,31.37
2019-01-04T19:40:55.704Z,21.50
2019-01-04T19:43:57.780Z,20.30
2019-01-04T19:46:59.766Z,17.03
2019-01-04T19:50:14.698Z,15.07
2019-01-04T19:53:17.187Z,19.93
2019-01-04T19:56:19.531Z,18.50
2019-01-04T19:59:21.510Z,18.27
2019-01-04T20:02:23.610Z,24.63
2019-01-04T20:05:31.117Z,20.43
2019-01-04T20:09:03.169Z,25.70
2019-01-04T20:12:48.298Z,25.90
2019-01-04T20:16:16.920Z,24.93
2019-01-04T20:19:27.799Z,28.53
2019-01-04T20:22:34.743Z,36.30
2019-01-04T20:25:55.137Z,25.83
2019-01-04T20:29:11.613Z,23.70
2019-01-04T20:32:31.745Z,17.17
2019-01-04T20:35:52.259Z,12.60
2019-01-04T20:39:16.229Z,12.63
2019-01-04T20:42:22.566Z,11.40
2019-01-04T20:45:35.662Z,12.80
2019-01-04T20:48:53.229Z,13.07
2019-01-04T20:51:57.531Z,16.07
2019-01-04T20:55:15.093Z,13.53
2019-01-04T20:58:37.542Z,12.43
2019-01-04T21:01:41.890Z,11.03
2019-01-04T21:05:06.105Z,10.93
2019-01-04T21:08:22.253Z,12.13
2019-01-04T21:11:28.924Z,10.77
2019-01-04T21:14:44.629Z,11.90
2019-01-04T21:17:57.798Z,11.83
2019-01-04T21:21:16.081Z,12.43
2019-01-04T21:24:23.209Z,12.07
2019-01-04T21:27:30.083Z,12.67
2019-01-04T21:30:33.871Z,12.33
2019-01-04T21:33:46.930Z,12.17
2019-01-04T21:37:02.981Z,13.30
2019-01-04T21:40:09.900Z,13.23
2019-01-04T21:43:31.864Z,11.97
2019-01-04T21:46:44.738Z,12.27
2019-01-04T21:49:48.501Z,10.03
2019-01-04T21:52:54.859Z,10.93
2019-01-04T21:55:58.612Z,11.23
2019-01-04T21:59:14.740Z,11.97
2019-01-04T22:02:25.658Z,11.90
2019-01-04T22:05:32.334Z,11.80
2019-01-04T22:08:48.429Z,12.27
2019-01-04T22:12:04.271Z,12.83
2019-01-04T22:15:17.058Z,11.20
2019-01-04T22:18:32.871Z,13.30
2019-01-04T22:21:39.719Z,12.07
2019-01-04T22:24:52.694Z,11.77
2019-01-04T22:28:05.393Z,12.20
2019-01-04T22:31:15.285Z,13.33
2019-01-04T22:34:19.041Z,11.43
2019-01-04T22:37:25.405Z,11.83
2019-01-04T22:40:33.349Z,11.73
2019-01-04T22:43:37.435Z,12.50
2019-01-04T22:46:44.153Z,12.50
2019-01-04T22:49:50.671Z,11.67
2019-01-04T22:53:06.649Z,13.10
2019-01-04T22:56:34.052Z,13.00
2019-01-04T22:59:46.732Z,12.30
2019-01-04T23:03:08.756Z,12.37
2019-01-04T23:06:18.443Z,12.27
2019-01-04T23:09:24.967Z,12.67
2019-01-04T23:12:45.393Z,13.07
2019-01-04T23:15:49.269Z,13.50
2019-01-04T23:19:09.588Z,13.83
2019-01-04T23:22:26.239Z,13.13
2019-01-04T23:25:30.107Z,13.33
2019-01-04T23:28:33.894Z,13.43
2019-01-04T23:31:37.759Z,12.97
2019-01-04T23:34:53.715Z,14.50
2019-01-04T23:38:06.745Z,14.40
2019-01-04T23:41:19.385Z,15.27
2019-01-04T23:44:23.208Z,15.80
2019-01-04T23:47:27.170Z,16.93
2019-01-04T23:50:31.056Z,16.20
2019-01-04T23:53:52.247Z,15.97
2019-01-04T23:57:05.354Z,14.70
